sensor_id;sensor_type;location;lat;lon;timestamp;temperature;humidity
14182;DHT22;7171;50.936;6.764;2024-02-23T00:01:24;8.40;99.90
14182;DHT22;7171;50.936;6.764;2024-02-23T00:03:51;8.40;99.90
14182;DHT22;7171;50.936;6.764;2024-02-23T00:06:18;8.40;99.90
14182;DHT22;7171;50.936;6.764;2024-02-23T00:08:45;8.40;99.90
14182;DHT22;7171;50.936;6.764;2024-02-23T00:11:11;8.40;99.90
14182;DHT22;7171;50.936;6.764;2024-02-23T00:13:39;8.40;99.90
14182;DHT22;7171;50.936;6.764;2024-02-23T00:16:06;8.30;99.90
14182;DHT22;7171;50.936;6.764;2024-02-23T00:21:00;8.10;99.90
14182;DHT22;7171;50.936;6.764;2024-02-23T00:23:27;8.00;99.90
14182;DHT22;7171;50.936;6.764;2024-02-23T00:25:54;7.90;99.90
14182;DHT22;7171;50.936;6.764;2024-02-23T00:28:21;7.90;99.90
14182;DHT22;7171;50.936;6.764;2024-02-23T00:30:49;7.70;99.90
14182;DHT22;7171;50.936;6.764;2024-02-23T00:33:16;7.70;99.90
14182;DHT22;7171;50.936;6.764;2024-02-23T00:35:43;7.70;99.90
14182;DHT22;7171;50.936;6.764;2024-02-23T00:38:09;7.70;99.90
14182;DHT22;7171;50.936;6.764;2024-02-23T00:40:36;7.70;99.90
14182;DHT22;7171;50.936;6.764;2024-02-23T00:43:03;7.60;99.90
14182;DHT22;7171;50.936;6.764;2024-02-23T00:45:30;7.60;99.90
14182;DHT22;7171;50.936;6.764;2024-02-23T00:47:58;7.60;99.90
14182;DHT22;7171;50.936;6.764;2024-02-23T00:50:25;7.60;99.90
14182;DHT22;7171;50.936;6.764;2024-02-23T00:52:52;7.70;99.90
14182;DHT22;7171;50.936;6.764;2024-02-23T00:55:19;7.70;99.90
14182;DHT22;7171;50.936;6.764;2024-02-23T00:57:46;7.60;99.90
14182;DHT22;7171;50.936;6.764;2024-02-23T01:00:13;7.60;99.90
14182;DHT22;7171;50.936;6.764;2024-02-23T01:02:40;7.60;99.90
14182;DHT22;7171;50.936;6.764;2024-02-23T01:05:09;7.70;99.90
14182;DHT22;7171;50.936;6.764;2024-02-23T01:07:36;7.60;99.90
14182;DHT22;7171;50.936;6.764;2024-02-23T01:10:03;7.70;99.90
14182;DHT22;7171;50.936;6.764;2024-02-23T01:12:30;7.70;99.90
14182;DHT22;7171;50.936;6.764;2024-02-23T01:14:56;7.70;99.90
14182;DHT22;7171;50.936;6.764;2024-02-23T01:17:23;7.60;99.90
14182;DHT22;7171;50.936;6.764;2024-02-23T01:19:50;7.60;99.90
14182;DHT22;7171;50.936;6.764;2024-02-23T01:22:18;7.60;99.90
14182;DHT22;7171;50.936;6.764;2024-02-23T01:24:44;7.60;99.90
14182;DHT22;7171;50.936;6.764;2024-02-23T01:27:11;7.60;99.90
14182;DHT22;7171;50.936;6.764;2024-02-23T01:29:38;7.60;99.90
14182;DHT22;7171;50.936;6.764;2024-02-23T01:32:05;7.50;99.90
14182;DHT22;7171;50.936;6.764;2024-02-23T01:34:32;7.50;99.90
14182;DHT22;7171;50.936;6.764;2024-02-23T01:36:59;7.40;99.90
14182;DHT22;7171;50.936;6.764;2024-02-23T01:39:27;7.40;99.90
14182;DHT22;7171;50.936;6.764;2024-02-23T01:41:54;7.40;99.90
14182;DHT22;7171;50.936;6.764;2024-02-23T01:44:21;7.40;99.90
14182;DHT22;7171;50.936;6.764;2024-02-23T01:46:49;7.30;99.90
14182;DHT22;7171;50.936;6.764;2024-02-23T01:49:16;7.40;99.90
14182;DHT22;7171;50.936;6.764;2024-02-23T01:51:43;7.40;99.90
14182;DHT22;7171;50.936;6.764;2024-02-23T01:54:10;7.40;99.90
14182;DHT22;7171;50.936;6.764;2024-02-23T01:56:38;7.40;99.90
14182;DHT22;7171;50.936;6.764;2024-02-23T01:59:06;7.40;99.90
14182;DHT22;7171;50.936;6.764;2024-02-23T02:01:33;7.40;99.90
14182;DHT22;7171;50.936;6.764;2024-02-23T02:04:00;7.40;99.90
14182;DHT22;7171;50.936;6.764;2024-02-23T02:06:27;7.40;99.90
14182;DHT22;7171;50.936;6.764;2024-02-23T02:08:54;7.30;99.90
14182;DHT22;7171;50.936;6.764;2024-02-23T02:11:21;7.40;99.90
14182;DHT22;7171;50.936;6.764;2024-02-23T02:13:49;7.40;99.90
14182;DHT22;7171;50.936;6.764;2024-02-23T02:16:16;7.40;99.90
14182;DHT22;7171;50.936;6.764;2024-02-23T02:18:42;7.40;99.90
14182;DHT22;7171;50.936;6.764;2024-02-23T02:21:11;7.40;99.90
14182;DHT22;7171;50.936;6.764;2024-02-23T02:23:38;7.40;99.90
14182;DHT22;7171;50.936;6.764;2024-02-23T02:26:05;7.40;99.90
14182;DHT22;7171;50.936;6.764;2024-02-23T02:28:32;7.40;99.90
14182;DHT22;7171;50.936;6.764;2024-02-23T02:31:01;7.40;99.90
14182;DHT22;7171;50.936;6.764;2024-02-23T02:33:28;7.40;99.90
14182;DHT22;7171;50.936;6.764;2024-02-23T02:35:55;7.40;99.90
14182;DHT22;7171;50.936;6.764;2024-02-23T02:38:22;7.40;99.90
14182;DHT22;7171;50.936;6.764;2024-02-23T02:40:48;7.40;99.90
14182;DHT22;7171;50.936;6.764;2024-02-23T02:43:15;7.40;99.90
14182;DHT22;7171;50.936;6.764;2024-02-23T02:45:42;7.40;99.90
14182;DHT22;7171;50.936;6.764;2024-02-23T02:48:11;7.40;99.90
14182;DHT22;7171;50.936;6.764;2024-02-23T02:50:38;7.50;99.90
14182;DHT22;7171;50.936;6.764;2024-02-23T02:53:05;7.50;99.90
14182;DHT22;7171;50.936;6.764;2024-02-23T02:55:32;7.50;99.90
14182;DHT22;7171;50.936;6.764;2024-02-23T02:57:58;7.40;99.90
14182;DHT22;7171;50.936;6.764;2024-02-23T03:00:25;7.40;99.90
14182;DHT22;7171;50.936;6.764;2024-02-23T03:02:52;7.40;99.90
14182;DHT22;7171;50.936;6.764;2024-02-23T03:05:21;7.40;99.90
14182;DHT22;7171;50.936;6.764;2024-02-23T03:07:47;7.50;99.90
14182;DHT22;7171;50.936;6.764;2024-02-23T03:10:14;7.50;99.90
14182;DHT22;7171;50.936;6.764;2024-02-23T03:12:42;7.50;99.90
14182;DHT22;7171;50.936;6.764;2024-02-23T03:15:09;7.50;99.90
14182;DHT22;7171;50.936;6.764;2024-02-23T03:17:36;7.50;99.90
14182;DHT22;7171;50.936;6.764;2024-02-23T03:20:04;7.50;99.90
14182;DHT22;7171;50.936;6.764;2024-02-23T03:22:35;7.50;99.90
14182;DHT22;7171;50.936;6.764;2024-02-23T03:25:02;7.60;99.90
14182;DHT22;7171;50.936;6.764;2024-02-23T03:27:34;7.60;99.90
14182;DHT22;7171;50.936;6.764;2024-02-23T03:30:02;7.60;99.90
14182;DHT22;7171;50.936;6.764;2024-02-23T03:32:29;7.60;99.90
14182;DHT22;7171;50.936;6.764;2024-02-23T03:34:56;7.60;99.90
14182;DHT22;7171;50.936;6.764;2024-02-23T03:37:23;7.60;99.90
14182;DHT22;7171;50.936;6.764;2024-02-23T03:39:51;7.60;99.90
14182;DHT22;7171;50.936;6.764;2024-02-23T03:42:18;7.60;99.90
14182;DHT22;7171;50.936;6.764;2024-02-23T03:44:45;7.60;99.90
14182;DHT22;7171;50.936;6.764;2024-02-23T03:47:11;7.60;99.90
14182;DHT22;7171;50.936;6.764;2024-02-23T03:49:38;7.60;99.90
14182;DHT22;7171;50.936;6.764;2024-02-23T03:52:05;7.60;99.90
14182;DHT22;7171;50.936;6.764;2024-02-23T03:54:32;7.60;99.90
14182;DHT22;7171;50.936;6.764;2024-02-23T03:57:00;7.60;99.90
14182;DHT22;7171;50.936;6.764;2024-02-23T03:59:28;7.60;99.90
14182;DHT22;7171;50.936;6.764;2024-02-23T04:01:55;7.60;99.90
14182;DHT22;7171;50.936;6.764;2024-02-23T04:04:22;7.60;99.90
14182;DHT22;7171;50.936;6.764;2024-02-23T04:06:48;7.60;99.90
14182;DHT22;7171;50.936;6.764;2024-02-23T04:09:15;7.60;99.90
14182;DHT22;7171;50.936;6.764;2024-02-23T04:11:42;7.70;99.90
14182;DHT22;7171;50.936;6.764;2024-02-23T04:14:10;7.70;99.90
14182;DHT22;7171;50.936;6.764;2024-02-23T04:16:37;7.70;99.90
14182;DHT22;7171;50.936;6.764;2024-02-23T04:19:03;7.70;99.90
14182;DHT22;7171;50.936;6.764;2024-02-23T04:21:30;7.80;99.90
14182;DHT22;7171;50.936;6.764;2024-02-23T04:23:57;7.80;99.90
14182;DHT22;7171;50.936;6.764;2024-02-23T04:26:24;7.80;99.90
14182;DHT22;7171;50.936;6.764;2024-02-23T04:28:50;7.90;99.90
14182;DHT22;7171;50.936;6.764;2024-02-23T04:31:18;7.90;99.90
14182;DHT22;7171;50.936;6.764;2024-02-23T04:33:45;7.90;99.90
14182;DHT22;7171;50.936;6.764;2024-02-23T04:36:12;7.90;99.90
14182;DHT22;7171;50.936;6.764;2024-02-23T04:38:38;8.00;99.90
14182;DHT22;7171;50.936;6.764;2024-02-23T04:41:05;8.00;99.90
14182;DHT22;7171;50.936;6.764;2024-02-23T04:43:32;8.00;99.90
14182;DHT22;7171;50.936;6.764;2024-02-23T04:45:59;8.00;99.90
14182;DHT22;7171;50.936;6.764;2024-02-23T04:48:27;8.00;99.90
14182;DHT22;7171;50.936;6.764;2024-02-23T04:50:56;8.00;99.90
14182;DHT22;7171;50.936;6.764;2024-02-23T04:53:23;8.00;99.90
14182;DHT22;7171;50.936;6.764;2024-02-23T04:55:49;8.00;99.90
14182;DHT22;7171;50.936;6.764;2024-02-23T04:58:16;8.00;99.90
14182;DHT22;7171;50.936;6.764;2024-02-23T05:00:43;8.00;99.90
14182;DHT22;7171;50.936;6.764;2024-02-23T05:03:10;8.00;99.90
14182;DHT22;7171;50.936;6.764;2024-02-23T05:05:38;8.00;99.90
14182;DHT22;7171;50.936;6.764;2024-02-23T05:08:05;8.00;99.90
14182;DHT22;7171;50.936;6.764;2024-02-23T05:10:32;8.00;99.90
14182;DHT22;7171;50.936;6.764;2024-02-23T05:12:58;8.00;99.90
14182;DHT22;7171;50.936;6.764;2024-02-23T05:15:25;8.00;99.90
14182;DHT22;7171;50.936;6.764;2024-02-23T05:17:52;8.00;99.90
14182;DHT22;7171;50.936;6.764;2024-02-23T05:20:19;8.00;99.90
14182;DHT22;7171;50.936;6.764;2024-02-23T05:22:47;8.00;99.90
14182;DHT22;7171;50.936;6.764;2024-02-23T05:25:14;8.00;99.90
14182;DHT22;7171;50.936;6.764;2024-02-23T05:27:40;8.00;99.90
14182;DHT22;7171;50.936;6.764;2024-02-23T05:30:08;7.90;99.90
14182;DHT22;7171;50.936;6.764;2024-02-23T05:32:35;7.90;99.90
14182;DHT22;7171;50.936;6.764;2024-02-23T05:35:03;7.90;99.90
14182;DHT22;7171;50.936;6.764;2024-02-23T05:37:29;7.90;99.90
14182;DHT22;7171;50.936;6.764;2024-02-23T05:39:57;7.90;99.90
14182;DHT22;7171;50.936;6.764;2024-02-23T05:42:25;7.90;99.90
14182;DHT22;7171;50.936;6.764;2024-02-23T05:44:52;7.90;99.90
14182;DHT22;7171;50.936;6.764;2024-02-23T05:47:19;7.90;99.90
14182;DHT22;7171;50.936;6.764;2024-02-23T05:49:46;7.80;99.90
14182;DHT22;7171;50.936;6.764;2024-02-23T05:52:13;7.80;99.90
14182;DHT22;7171;50.936;6.764;2024-02-23T05:54:40;7.80;99.90
14182;DHT22;7171;50.936;6.764;2024-02-23T05:57:08;7.80;99.90
14182;DHT22;7171;50.936;6.764;2024-02-23T05:59:35;7.80;99.90
14182;DHT22;7171;50.936;6.764;2024-02-23T06:02:02;7.90;99.90
14182;DHT22;7171;50.936;6.764;2024-02-23T06:04:29;7.80;99.90
14182;DHT22;7171;50.936;6.764;2024-02-23T06:06:56;7.80;99.90
14182;DHT22;7171;50.936;6.764;2024-02-23T06:09:22;7.80;99.90
14182;DHT22;7171;50.936;6.764;2024-02-23T06:11:49;7.80;99.90
14182;DHT22;7171;50.936;6.764;2024-02-23T06:14:17;7.80;99.90
14182;DHT22;7171;50.936;6.764;2024-02-23T06:16:44;7.80;99.90
14182;DHT22;7171;50.936;6.764;2024-02-23T06:19:11;7.80;99.90
14182;DHT22;7171;50.936;6.764;2024-02-23T06:21:37;7.80;99.90
14182;DHT22;7171;50.936;6.764;2024-02-23T06:24:04;7.80;99.90
14182;DHT22;7171;50.936;6.764;2024-02-23T06:26:33;7.80;99.90
14182;DHT22;7171;50.936;6.764;2024-02-23T06:29:00;7.80;99.90
14182;DHT22;7171;50.936;6.764;2024-02-23T06:31:28;7.80;99.90
14182;DHT22;7171;50.936;6.764;2024-02-23T06:33:55;7.80;99.90
14182;DHT22;7171;50.936;6.764;2024-02-23T06:36:21;7.80;99.90
14182;DHT22;7171;50.936;6.764;2024-02-23T06:38:48;7.80;99.90
14182;DHT22;7171;50.936;6.764;2024-02-23T06:41:15;7.80;99.90
14182;DHT22;7171;50.936;6.764;2024-02-23T06:43:42;7.80;99.90
14182;DHT22;7171;50.936;6.764;2024-02-23T06:46:09;7.80;99.90
14182;DHT22;7171;50.936;6.764;2024-02-23T06:48:37;7.70;99.90
14182;DHT22;7171;50.936;6.764;2024-02-23T06:51:04;7.70;99.90
14182;DHT22;7171;50.936;6.764;2024-02-23T06:53:34;7.70;99.90
14182;DHT22;7171;50.936;6.764;2024-02-23T06:56:01;7.70;99.90
14182;DHT22;7171;50.936;6.764;2024-02-23T06:58:28;7.70;99.90
14182;DHT22;7171;50.936;6.764;2024-02-23T07:00:55;7.60;99.90
14182;DHT22;7171;50.936;6.764;2024-02-23T07:03:22;7.70;99.90
14182;DHT22;7171;50.936;6.764;2024-02-23T07:05:50;7.60;99.90
14182;DHT22;7171;50.936;6.764;2024-02-23T07:08:17;7.60;99.90
14182;DHT22;7171;50.936;6.764;2024-02-23T07:10:44;7.60;99.90
14182;DHT22;7171;50.936;6.764;2024-02-23T07:13:11;7.60;99.90
14182;DHT22;7171;50.936;6.764;2024-02-23T07:15:37;7.60;99.90
14182;DHT22;7171;50.936;6.764;2024-02-23T07:18:05;7.60;99.90
14182;DHT22;7171;50.936;6.764;2024-02-23T07:20:34;7.70;99.90
14182;DHT22;7171;50.936;6.764;2024-02-23T07:23:02;7.70;99.90
14182;DHT22;7171;50.936;6.764;2024-02-23T07:25:29;7.70;99.90
14182;DHT22;7171;50.936;6.764;2024-02-23T07:27:56;7.70;99.90
14182;DHT22;7171;50.936;6.764;2024-02-23T07:30:23;7.70;99.90
14182;DHT22;7171;50.936;6.764;2024-02-23T07:32:50;7.70;99.90
14182;DHT22;7171;50.936;6.764;2024-02-23T07:35:17;7.80;99.90
14182;DHT22;7171;50.936;6.764;2024-02-23T07:37:44;7.80;99.90
14182;DHT22;7171;50.936;6.764;2024-02-23T07:40:12;7.80;99.90
14182;DHT22;7171;50.936;6.764;2024-02-23T07:42:39;7.80;99.90
14182;DHT22;7171;50.936;6.764;2024-02-23T07:45:07;7.90;99.90
14182;DHT22;7171;50.936;6.764;2024-02-23T07:47:34;7.90;99.90
14182;DHT22;7171;50.936;6.764;2024-02-23T07:50:01;7.90;99.90
14182;DHT22;7171;50.936;6.764;2024-02-23T07:52:28;8.00;99.90
14182;DHT22;7171;50.936;6.764;2024-02-23T07:54:55;8.00;99.90
14182;DHT22;7171;50.936;6.764;2024-02-23T07:57:23;8.00;99.90
14182;DHT22;7171;50.936;6.764;2024-02-23T07:59:50;8.10;99.90
14182;DHT22;7171;50.936;6.764;2024-02-23T08:02:16;8.10;99.90
14182;DHT22;7171;50.936;6.764;2024-02-23T08:04:43;8.10;99.90
14182;DHT22;7171;50.936;6.764;2024-02-23T08:07:13;8.20;99.90
14182;DHT22;7171;50.936;6.764;2024-02-23T08:09:40;8.30;99.90
14182;DHT22;7171;50.936;6.764;2024-02-23T08:12:07;8.30;99.90
14182;DHT22;7171;50.936;6.764;2024-02-23T08:14:35;8.40;99.90
14182;DHT22;7171;50.936;6.764;2024-02-23T08:17:02;8.40;99.90
14182;DHT22;7171;50.936;6.764;2024-02-23T08:19:29;8.50;99.90
14182;DHT22;7171;50.936;6.764;2024-02-23T08:21:56;8.50;99.90
14182;DHT22;7171;50.936;6.764;2024-02-23T08:24:22;8.50;99.90
14182;DHT22;7171;50.936;6.764;2024-02-23T08:26:50;8.60;99.90
14182;DHT22;7171;50.936;6.764;2024-02-23T08:29:16;8.60;99.90
14182;DHT22;7171;50.936;6.764;2024-02-23T08:31:45;8.70;99.90
14182;DHT22;7171;50.936;6.764;2024-02-23T08:34:11;8.70;99.90
14182;DHT22;7171;50.936;6.764;2024-02-23T08:36:38;8.70;99.90
14182;DHT22;7171;50.936;6.764;2024-02-23T08:39:05;8.80;99.90
14182;DHT22;7171;50.936;6.764;2024-02-23T08:41:32;8.80;99.90
14182;DHT22;7171;50.936;6.764;2024-02-23T08:43:59;8.80;99.90
14182;DHT22;7171;50.936;6.764;2024-02-23T08:46:25;8.90;99.90
14182;DHT22;7171;50.936;6.764;2024-02-23T08:48:53;8.90;99.90
14182;DHT22;7171;50.936;6.764;2024-02-23T08:51:20;9.00;99.90
14182;DHT22;7171;50.936;6.764;2024-02-23T08:53:47;9.00;99.90
14182;DHT22;7171;50.936;6.764;2024-02-23T08:56:14;9.00;99.90
14182;DHT22;7171;50.936;6.764;2024-02-23T08:58:41;9.00;99.90
14182;DHT22;7171;50.936;6.764;2024-02-23T09:01:08;9.10;99.90
14182;DHT22;7171;50.936;6.764;2024-02-23T09:03:35;9.10;99.90
14182;DHT22;7171;50.936;6.764;2024-02-23T09:06:04;9.10;99.90
14182;DHT22;7171;50.936;6.764;2024-02-23T09:08:30;9.10;99.90
14182;DHT22;7171;50.936;6.764;2024-02-23T09:10:57;9.10;99.90
14182;DHT22;7171;50.936;6.764;2024-02-23T09:13:24;9.10;99.90
14182;DHT22;7171;50.936;6.764;2024-02-23T09:15:52;9.10;99.90
14182;DHT22;7171;50.936;6.764;2024-02-23T09:18:18;9.10;99.90
14182;DHT22;7171;50.936;6.764;2024-02-23T09:20:45;9.10;99.90
14182;DHT22;7171;50.936;6.764;2024-02-23T09:23:13;9.20;99.90
14182;DHT22;7171;50.936;6.764;2024-02-23T09:25:40;9.20;99.90
14182;DHT22;7171;50.936;6.764;2024-02-23T09:28:08;9.20;99.90
14182;DHT22;7171;50.936;6.764;2024-02-23T09:30:36;9.20;99.90
14182;DHT22;7171;50.936;6.764;2024-02-23T09:33:04;9.30;99.90
14182;DHT22;7171;50.936;6.764;2024-02-23T09:35:30;9.30;99.90
14182;DHT22;7171;50.936;6.764;2024-02-23T09:37:57;9.40;99.90
14182;DHT22;7171;50.936;6.764;2024-02-23T09:40:25;9.50;99.90
14182;DHT22;7171;50.936;6.764;2024-02-23T09:42:56;9.50;99.90
14182;DHT22;7171;50.936;6.764;2024-02-23T09:45:24;9.50;99.90
14182;DHT22;7171;50.936;6.764;2024-02-23T09:47:52;9.60;99.90
14182;DHT22;7171;50.936;6.764;2024-02-23T09:50:20;9.70;99.90
14182;DHT22;7171;50.936;6.764;2024-02-23T09:52:48;9.70;99.90
14182;DHT22;7171;50.936;6.764;2024-02-23T09:55:16;9.80;99.90
14182;DHT22;7171;50.936;6.764;2024-02-23T09:57:45;9.80;99.90
14182;DHT22;7171;50.936;6.764;2024-02-23T10:00:16;9.80;99.90
14182;DHT22;7171;50.936;6.764;2024-02-23T10:02:43;9.80;99.90
14182;DHT22;7171;50.936;6.764;2024-02-23T10:05:11;9.80;99.90
14182;DHT22;7171;50.936;6.764;2024-02-23T10:07:38;9.80;99.90
14182;DHT22;7171;50.936;6.764;2024-02-23T10:10:07;9.80;99.90
14182;DHT22;7171;50.936;6.764;2024-02-23T10:12:33;9.90;99.90
14182;DHT22;7171;50.936;6.764;2024-02-23T10:15:02;9.90;99.90
14182;DHT22;7171;50.936;6.764;2024-02-23T10:17:29;9.90;99.90
14182;DHT22;7171;50.936;6.764;2024-02-23T10:19:56;10.00;99.90
14182;DHT22;7171;50.936;6.764;2024-02-23T10:22:24;10.10;99.90
14182;DHT22;7171;50.936;6.764;2024-02-23T10:24:51;10.10;99.90
14182;DHT22;7171;50.936;6.764;2024-02-23T10:27:18;10.10;99.90
14182;DHT22;7171;50.936;6.764;2024-02-23T10:29:49;10.20;99.90
14182;DHT22;7171;50.936;6.764;2024-02-23T10:32:18;10.20;99.90
14182;DHT22;7171;50.936;6.764;2024-02-23T10:34:48;10.20;99.90
14182;DHT22;7171;50.936;6.764;2024-02-23T10:37:15;10.20;99.90
14182;DHT22;7171;50.936;6.764;2024-02-23T10:39:42;10.20;99.90
14182;DHT22;7171;50.936;6.764;2024-02-23T10:42:09;10.20;99.90
14182;DHT22;7171;50.936;6.764;2024-02-23T10:44:37;10.30;99.90
14182;DHT22;7171;50.936;6.764;2024-02-23T10:47:04;10.20;99.90
14182;DHT22;7171;50.936;6.764;2024-02-23T10:49:33;10.20;99.90
14182;DHT22;7171;50.936;6.764;2024-02-23T10:52:00;10.20;99.90
14182;DHT22;7171;50.936;6.764;2024-02-23T10:54:28;10.30;99.90
14182;DHT22;7171;50.936;6.764;2024-02-23T10:56:56;10.20;99.90
14182;DHT22;7171;50.936;6.764;2024-02-23T10:59:23;10.30;99.90
14182;DHT22;7171;50.936;6.764;2024-02-23T11:01:51;10.20;99.90
14182;DHT22;7171;50.936;6.764;2024-02-23T11:04:20;10.20;99.90
14182;DHT22;7171;50.936;6.764;2024-02-23T11:06:52;10.20;99.90
14182;DHT22;7171;50.936;6.764;2024-02-23T11:09:21;10.20;99.90
14182;DHT22;7171;50.936;6.764;2024-02-23T11:11:55;10.20;99.90
14182;DHT22;7171;50.936;6.764;2024-02-23T11:14:31;10.20;99.90
14182;DHT22;7171;50.936;6.764;2024-02-23T11:16:58;10.20;99.90
14182;DHT22;7171;50.936;6.764;2024-02-23T11:19:32;10.10;99.90
14182;DHT22;7171;50.936;6.764;2024-02-23T11:22:01;10.10;99.90
14182;DHT22;7171;50.936;6.764;2024-02-23T11:24:29;10.10;99.90
14182;DHT22;7171;50.936;6.764;2024-02-23T11:26:56;10.10;99.90
14182;DHT22;7171;50.936;6.764;2024-02-23T11:29:26;10.10;99.90
14182;DHT22;7171;50.936;6.764;2024-02-23T11:31:53;10.10;99.90
14182;DHT22;7171;50.936;6.764;2024-02-23T11:34:26;10.00;99.90
14182;DHT22;7171;50.936;6.764;2024-02-23T11:36:53;10.10;99.90
14182;DHT22;7171;50.936;6.764;2024-02-23T11:39:22;10.00;99.90
14182;DHT22;7171;50.936;6.764;2024-02-23T11:41:49;10.00;99.90
14182;DHT22;7171;50.936;6.764;2024-02-23T11:44:17;10.10;99.90
14182;DHT22;7171;50.936;6.764;2024-02-23T11:46:44;10.10;99.90
14182;DHT22;7171;50.936;6.764;2024-02-23T11:49:12;10.10;99.90
14182;DHT22;7171;50.936;6.764;2024-02-23T11:51:38;10.10;99.90
14182;DHT22;7171;50.936;6.764;2024-02-23T11:54:06;10.20;99.90
14182;DHT22;7171;50.936;6.764;2024-02-23T11:56:34;10.20;99.90
14182;DHT22;7171;50.936;6.764;2024-02-23T11:59:01;10.20;99.90
14182;DHT22;7171;50.936;6.764;2024-02-23T12:01:29;10.20;99.90
14182;DHT22;7171;50.936;6.764;2024-02-23T12:03:57;10.20;99.90
14182;DHT22;7171;50.936;6.764;2024-02-23T12:06:24;10.20;99.90
14182;DHT22;7171;50.936;6.764;2024-02-23T12:08:54;10.30;99.90
14182;DHT22;7171;50.936;6.764;2024-02-23T12:11:21;10.20;99.90
14182;DHT22;7171;50.936;6.764;2024-02-23T12:13:50;10.30;99.90
14182;DHT22;7171;50.936;6.764;2024-02-23T12:16:17;10.30;99.90
14182;DHT22;7171;50.936;6.764;2024-02-23T12:18:43;10.30;99.90
14182;DHT22;7171;50.936;6.764;2024-02-23T12:21:10;10.30;99.90
14182;DHT22;7171;50.936;6.764;2024-02-23T12:23:40;10.30;99.90
14182;DHT22;7171;50.936;6.764;2024-02-23T12:26:08;10.30;99.90
14182;DHT22;7171;50.936;6.764;2024-02-23T12:28:35;10.30;99.90
14182;DHT22;7171;50.936;6.764;2024-02-23T12:31:04;10.20;99.90
14182;DHT22;7171;50.936;6.764;2024-02-23T12:33:32;10.20;99.90
14182;DHT22;7171;50.936;6.764;2024-02-23T12:36:00;10.30;99.90
14182;DHT22;7171;50.936;6.764;2024-02-23T12:38:27;10.30;99.90
14182;DHT22;7171;50.936;6.764;2024-02-23T12:40:54;10.30;99.90
14182;DHT22;7171;50.936;6.764;2024-02-23T12:43:21;10.40;99.90
14182;DHT22;7171;50.936;6.764;2024-02-23T12:45:49;10.50;99.90
14182;DHT22;7171;50.936;6.764;2024-02-23T12:48:18;10.50;99.90
14182;DHT22;7171;50.936;6.764;2024-02-23T12:50:45;10.60;99.90
14182;DHT22;7171;50.936;6.764;2024-02-23T12:53:30;10.70;99.90
14182;DHT22;7171;50.936;6.764;2024-02-23T12:55:58;10.80;99.90
14182;DHT22;7171;50.936;6.764;2024-02-23T12:58:24;10.80;99.90
14182;DHT22;7171;50.936;6.764;2024-02-23T13:00:51;10.80;99.90
14182;DHT22;7171;50.936;6.764;2024-02-23T13:03:20;10.90;99.90
14182;DHT22;7171;50.936;6.764;2024-02-23T13:05:47;10.90;99.90
14182;DHT22;7171;50.936;6.764;2024-02-23T13:08:13;10.90;99.90
14182;DHT22;7171;50.936;6.764;2024-02-23T13:10:40;10.90;99.90
14182;DHT22;7171;50.936;6.764;2024-02-23T13:15:34;11.00;99.90
14182;DHT22;7171;50.936;6.764;2024-02-23T13:18:02;11.00;99.90
14182;DHT22;7171;50.936;6.764;2024-02-23T13:20:30;11.00;99.90
14182;DHT22;7171;50.936;6.764;2024-02-23T13:22:57;11.00;99.90
14182;DHT22;7171;50.936;6.764;2024-02-23T13:25:24;11.10;99.90
14182;DHT22;7171;50.936;6.764;2024-02-23T13:27:50;11.20;99.90
14182;DHT22;7171;50.936;6.764;2024-02-23T13:30:18;11.30;99.90
14182;DHT22;7171;50.936;6.764;2024-02-23T13:32:45;11.30;99.90
14182;DHT22;7171;50.936;6.764;2024-02-23T13:35:11;11.40;99.90
14182;DHT22;7171;50.936;6.764;2024-02-23T13:37:41;11.50;99.90
14182;DHT22;7171;50.936;6.764;2024-02-23T13:40:09;11.50;99.90
14182;DHT22;7171;50.936;6.764;2024-02-23T13:42:36;11.50;99.90
14182;DHT22;7171;50.936;6.764;2024-02-23T13:45:05;11.50;99.90
14182;DHT22;7171;50.936;6.764;2024-02-23T13:47:33;11.50;99.90
14182;DHT22;7171;50.936;6.764;2024-02-23T13:49:59;11.50;99.90
14182;DHT22;7171;50.936;6.764;2024-02-23T13:52:27;11.50;99.90
14182;DHT22;7171;50.936;6.764;2024-02-23T13:54:55;11.50;99.90
14182;DHT22;7171;50.936;6.764;2024-02-23T13:57:22;11.50;99.90
14182;DHT22;7171;50.936;6.764;2024-02-23T13:59:49;11.50;99.90
14182;DHT22;7171;50.936;6.764;2024-02-23T14:02:16;11.50;99.90
14182;DHT22;7171;50.936;6.764;2024-02-23T14:04:44;11.50;99.90
14182;DHT22;7171;50.936;6.764;2024-02-23T14:07:11;11.50;99.90
14182;DHT22;7171;50.936;6.764;2024-02-23T14:09:38;11.50;99.90
14182;DHT22;7171;50.936;6.764;2024-02-23T14:12:07;11.40;99.90
14182;DHT22;7171;50.936;6.764;2024-02-23T14:14:34;11.40;99.90
14182;DHT22;7171;50.936;6.764;2024-02-23T14:17:01;11.40;99.90
14182;DHT22;7171;50.936;6.764;2024-02-23T14:19:28;11.40;99.90
14182;DHT22;7171;50.936;6.764;2024-02-23T14:21:54;11.40;99.90
14182;DHT22;7171;50.936;6.764;2024-02-23T14:24:21;11.40;99.90
14182;DHT22;7171;50.936;6.764;2024-02-23T14:26:48;11.30;99.90
14182;DHT22;7171;50.936;6.764;2024-02-23T14:29:16;11.30;99.90
14182;DHT22;7171;50.936;6.764;2024-02-23T14:31:43;11.30;99.90
14182;DHT22;7171;50.936;6.764;2024-02-23T14:34:10;11.30;99.90
14182;DHT22;7171;50.936;6.764;2024-02-23T14:36:36;11.20;99.90
14182;DHT22;7171;50.936;6.764;2024-02-23T14:39:03;11.20;99.90
14182;DHT22;7171;50.936;6.764;2024-02-23T14:41:30;11.20;99.90
14182;DHT22;7171;50.936;6.764;2024-02-23T14:43:57;11.20;99.90
14182;DHT22;7171;50.936;6.764;2024-02-23T14:46:25;11.20;99.90
14182;DHT22;7171;50.936;6.764;2024-02-23T14:48:52;11.20;99.90
14182;DHT22;7171;50.936;6.764;2024-02-23T14:51:19;11.20;99.90
14182;DHT22;7171;50.936;6.764;2024-02-23T14:53:46;11.10;99.90
14182;DHT22;7171;50.936;6.764;2024-02-23T14:56:12;11.10;99.90
14182;DHT22;7171;50.936;6.764;2024-02-23T14:58:39;11.10;99.90
14182;DHT22;7171;50.936;6.764;2024-02-23T15:01:06;11.10;99.90
14182;DHT22;7171;50.936;6.764;2024-02-23T15:03:34;11.00;99.90
14182;DHT22;7171;50.936;6.764;2024-02-23T15:06:01;11.10;99.90
14182;DHT22;7171;50.936;6.764;2024-02-23T15:08:28;11.10;99.90
14182;DHT22;7171;50.936;6.764;2024-02-23T15:10:55;11.10;99.90
14182;DHT22;7171;50.936;6.764;2024-02-23T15:13:22;11.10;99.90
14182;DHT22;7171;50.936;6.764;2024-02-23T15:15:49;11.10;99.90
14182;DHT22;7171;50.936;6.764;2024-02-23T15:18:16;11.20;99.90
14182;DHT22;7171;50.936;6.764;2024-02-23T15:20:44;11.20;99.90
14182;DHT22;7171;50.936;6.764;2024-02-23T15:23:11;11.20;99.90
14182;DHT22;7171;50.936;6.764;2024-02-23T15:25:38;11.20;99.90
14182;DHT22;7171;50.936;6.764;2024-02-23T15:28:05;11.20;99.90
14182;DHT22;7171;50.936;6.764;2024-02-23T15:30:32;11.10;99.90
14182;DHT22;7171;50.936;6.764;2024-02-23T15:32:59;11.20;99.90
14182;DHT22;7171;50.936;6.764;2024-02-23T15:35:26;11.20;99.90
14182;DHT22;7171;50.936;6.764;2024-02-23T15:37:54;11.20;99.90
14182;DHT22;7171;50.936;6.764;2024-02-23T15:40:21;11.20;99.90
14182;DHT22;7171;50.936;6.764;2024-02-23T15:42:48;11.20;99.90
14182;DHT22;7171;50.936;6.764;2024-02-23T15:45:16;11.20;99.90
14182;DHT22;7171;50.936;6.764;2024-02-23T15:47:44;11.20;99.90
14182;DHT22;7171;50.936;6.764;2024-02-23T15:50:11;11.30;99.90
14182;DHT22;7171;50.936;6.764;2024-02-23T15:52:38;11.30;99.90
14182;DHT22;7171;50.936;6.764;2024-02-23T15:55:07;11.30;99.90
14182;DHT22;7171;50.936;6.764;2024-02-23T15:57:36;11.30;99.90
14182;DHT22;7171;50.936;6.764;2024-02-23T16:00:04;11.30;99.90
14182;DHT22;7171;50.936;6.764;2024-02-23T16:02:33;11.20;99.90